Time;durP1;ratioP1;P1;durP2;ratioP2;P2;SDS_P1;SDS_P2;PMS_P1;PMS_P2;Temp;Humidity;BMP_temperature;BMP_pressure;BME280_temperature;BME280_humidity;BME280_pressure;Samples;Min_cycle;Max_cycle;Signal;HPM_P1;HPM_P2
2022/12/12 00:01:35;;;;;;;48.33;28.27;;;0.50;94.60;;;;;;5003037;28;20981;-87
2022/12/12 00:04:01;;;;;;;67.32;32.47;;;0.50;94.40;;;;;;5020595;28;20408;-88
2022/12/12 00:06:27;;;;;;;59.10;30.75;;;0.60;94.70;;;;;;5002044;28;20998;-87
2022/12/12 00:08:53;;;;;;;51.42;28.95;;;0.60;94.50;;;;;;5020263;28;20521;-88
2022/12/12 00:11:19;;;;;;;54.58;30.13;;;0.60;94.50;;;;;;5018330;28;20488;-88
2022/12/12 00:13:45;;;;;;;56.90;30.53;;;0.60;94.60;;;;;;5003202;28;20775;-89
2022/12/12 00:16:12;;;;;;;56.93;30.70;;;0.60;94.60;;;;;;5002039;28;20420;-88
2022/12/12 00:18:39;;;;;;;53.67;29.93;;;0.70;94.50;;;;;;5019239;28;20576;-89
2022/12/12 00:21:10;;;;;;;54.40;30.65;;;0.70;94.50;;;;;;5003802;28;20404;-87
2022/12/12 00:23:35;;;;;;;47.95;29.15;;;0.70;94.40;;;;;;5001785;28;20409;-88
2022/12/12 00:26:04;;;;;;;47.80;28.90;;;0.70;94.30;;;;;;5004049;28;20471;-88
2022/12/12 00:28:31;;;;;;;47.83;28.65;;;0.70;94.30;;;;;;5018336;28;20445;-88
2022/12/12 00:30:57;;;;;;;58.03;30.08;;;0.70;94.30;;;;;;4986737;28;20417;-88
2022/12/12 00:33:22;;;;;;;51.47;29.17;;;0.80;94.30;;;;;;5018847;28;20495;-88
2022/12/12 00:35:49;;;;;;;49.80;29.27;;;0.70;94.60;;;;;;5018960;28;21009;-89
2022/12/12 00:38:16;;;;;;;46.53;27.58;;;1.00;94.30;;;;;;5019212;28;20417;-87
2022/12/12 00:40:42;;;;;;;48.55;28.48;;;0.80;94.50;;;;;;5001793;28;20436;-88
2022/12/12 00:43:08;;;;;;;45.40;27.98;;;1.00;94.30;;;;;;5003485;28;20417;-88
2022/12/12 00:45:33;;;;;;;50.60;28.48;;;0.80;94.30;;;;;;5001564;28;20409;-87
2022/12/12 00:47:59;;;;;;;45.73;27.97;;;0.80;94.00;;;;;;5019874;28;20432;-88
2022/12/12 00:50:25;;;;;;;44.57;27.50;;;0.80;94.00;;;;;;4986058;28;20417;-87
2022/12/12 00:52:50;;;;;;;46.25;27.55;;;1.10;94.10;;;;;;5002771;28;20437;-88
2022/12/12 00:55:16;;;;;;;42.85;26.35;;;0.80;94.10;;;;;;5002578;28;20416;-88
2022/12/12 00:57:42;;;;;;;46.47;27.87;;;0.80;94.00;;;;;;5002405;28;20413;-87
2022/12/12 01:00:11;;;;;;;44.83;26.70;;;0.90;94.10;;;;;;5019723;28;21082;-87
2022/12/12 01:02:37;;;;;;;43.90;26.55;;;0.80;94.00;;;;;;5001300;28;20411;-88
2022/12/12 01:05:03;;;;;;;43.17;26.38;;;0.80;94.00;;;;;;5003548;28;20420;-89
2022/12/12 01:07:28;;;;;;;48.33;28.17;;;0.80;93.90;;;;;;5001578;28;20563;-87
2022/12/12 01:09:54;;;;;;;49.97;29.13;;;0.80;94.00;;;;;;5002818;28;20405;-87
2022/12/12 01:12:19;;;;;;;46.97;28.23;;;0.90;94.00;;;;;;4985453;28;20463;-87
2022/12/12 01:14:45;;;;;;;41.17;26.40;;;0.90;94.00;;;;;;5001868;28;20409;-88
2022/12/12 01:17:11;;;;;;;45.97;27.55;;;0.90;94.00;;;;;;5002481;28;20451;-88
2022/12/12 01:19:36;;;;;;;48.60;28.17;;;0.80;94.10;;;;;;5001573;28;20421;-88
2022/12/12 01:22:02;;;;;;;45.33;27.33;;;0.80;93.90;;;;;;5003109;28;20461;-88
2022/12/12 01:24:28;;;;;;;43.03;26.90;;;0.80;93.90;;;;;;4984988;28;20413;-88
2022/12/12 01:26:53;;;;;;;48.47;28.27;;;0.80;93.90;;;;;;4986615;28;20417;-88
2022/12/12 01:29:19;;;;;;;44.70;26.83;;;0.80;93.90;;;;;;4986846;28;20405;-88
2022/12/12 01:31:44;;;;;;;44.33;26.30;;;0.80;93.90;;;;;;5006087;28;20413;-89
2022/12/12 01:34:10;;;;;;;44.87;27.17;;;0.80;93.90;;;;;;4989140;28;20916;-87
2022/12/12 01:36:36;;;;;;;47.35;27.30;;;0.70;93.90;;;;;;5005439;28;20425;-88
2022/12/12 01:39:03;;;;;;;43.40;27.10;;;0.70;94.00;;;;;;5006575;28;20765;-88
2022/12/12 01:41:28;;;;;;;46.80;27.83;;;0.70;93.90;;;;;;4988433;28;20401;-88
2022/12/12 01:43:55;;;;;;;43.75;26.02;;;0.70;94.10;;;;;;5006340;28;20417;-87
2022/12/12 01:46:39;;;;;;;40.95;25.67;;;0.70;93.90;;;;;;5004552;28;20485;-87
2022/12/12 01:49:17;;;;;;;43.42;27.08;;;0.70;94.00;;;;;;5005632;28;20792;-87
2022/12/12 01:51:45;;;;;;;41.97;26.08;;;0.70;93.90;;;;;;5005639;28;20516;-88
2022/12/12 01:54:18;;;;;;;42.65;26.20;;;0.70;93.90;;;;;;4988492;28;20436;-88
2022/12/12 01:56:45;;;;;;;42.38;26.27;;;0.70;93.90;;;;;;5023163;28;20408;-88
2022/12/12 01:59:14;;;;;;;41.90;26.00;;;0.70;93.80;;;;;;5004799;28;20839;-88
2022/12/12 02:01:40;;;;;;;43.90;26.27;;;0.70;93.80;;;;;;5022608;28;20896;-88
2022/12/12 02:04:08;;;;;;;49.90;27.15;;;0.70;93.70;;;;;;5021196;28;20912;-88
2022/12/12 02:06:35;;;;;;;41.28;26.15;;;0.70;93.90;;;;;;5021714;28;20455;-88
2022/12/12 02:09:05;;;;;;;47.88;27.85;;;0.70;93.90;;;;;;5004763;28;20425;-88
2022/12/12 02:11:32;;;;;;;44.33;26.33;;;0.70;93.80;;;;;;5020818;28;20487;-88
2022/12/12 02:13:58;;;;;;;42.50;25.87;;;0.80;93.90;;;;;;5006212;28;20416;-87
2022/12/12 02:16:41;;;;;;;46.45;27.75;;;0.80;93.90;;;;;;4987539;28;20409;-88
2022/12/12 02:19:26;;;;;;;44.20;26.42;;;0.70;93.80;;;;;;5005351;28;20421;-89
2022/12/12 02:21:56;;;;;;;43.33;26.38;;;0.70;93.90;;;;;;5005011;28;20425;-87
2022/12/12 02:24:47;;;;;;;43.45;26.00;;;0.70;93.80;;;;;;4988535;28;20413;-88
2022/12/12 02:27:50;;;;;;;41.20;25.63;;;0.70;93.80;;;;;;5005936;28;20588;-88
2022/12/12 02:30:21;;;;;;;42.05;26.35;;;0.70;93.70;;;;;;5004436;28;20417;-87
2022/12/12 02:32:57;;;;;;;40.77;25.40;;;0.80;93.80;;;;;;5021122;28;20439;-88
2022/12/12 02:35:32;;;;;;;37.83;25.17;;;0.80;93.60;;;;;;5005328;28;20408;-87
2022/12/12 02:38:18;;;;;;;39.50;24.67;;;0.80;93.50;;;;;;5003682;28;20409;-88
2022/12/12 02:40:48;;;;;;;39.25;25.67;;;0.80;93.60;;;;;;5004901;28;20413;-87
2022/12/12 02:43:38;;;;;;;41.25;26.02;;;0.90;93.60;;;;;;4987892;28;20491;-87
2022/12/12 02:46:11;;;;;;;37.50;24.88;;;0.80;93.50;;;;;;5004245;28;20413;-88
2022/12/12 02:48:49;;;;;;;38.83;25.60;;;0.70;93.60;;;;;;5005376;28;20440;-87
2022/12/12 02:51:16;;;;;;;40.60;24.85;;;0.80;93.60;;;;;;4987336;28;20500;-88
2022/12/12 02:53:42;;;;;;;39.25;25.27;;;0.70;93.30;;;;;;5021602;28;20460;-87
2022/12/12 02:56:45;;;;;;;40.47;24.98;;;0.80;93.40;;;;;;5003817;28;20931;-88
2022/12/12 02:59:20;;;;;;;40.75;24.65;;;0.70;93.60;;;;;;5003819;28;20417;-88
2022/12/12 03:02:18;;;;;;;41.55;26.33;;;0.70;93.50;;;;;;5022463;28;20487;-88
2022/12/12 03:08:10;;;;;;;38.50;24.42;;;0.70;93.50;;;;;;5003406;28;20520;-88
2022/12/12 03:11:03;;;;;;;39.10;24.73;;;0.70;93.60;;;;;;5021799;28;20891;-87
2022/12/12 03:13:35;;;;;;;40.05;24.60;;;0.70;93.70;;;;;;5003620;28;20470;-88
2022/12/12 03:16:10;;;;;;;39.50;25.23;;;0.70;93.60;;;;;;5020346;28;20919;-88
2022/12/12 03:18:47;;;;;;;39.88;25.00;;;0.60;93.60;;;;;;5004391;28;20453;-88
2022/12/12 03:21:36;;;;;;;42.65;25.77;;;0.60;93.60;;;;;;5019161;28;20405;-88
2022/12/12 03:24:07;;;;;;;43.67;26.02;;;0.60;93.80;;;;;;5020678;28;20413;-88
2022/12/12 03:26:50;;;;;;;40.65;25.05;;;0.60;93.90;;;;;;5019832;28;20777;-88
2022/12/12 03:29:25;;;;;;;41.20;26.20;;;0.60;93.70;;;;;;5003421;28;20436;-87
2022/12/12 03:31:56;;;;;;;39.22;25.55;;;0.70;93.70;;;;;;5004467;28;20459;-87
2022/12/12 03:34:28;;;;;;;43.40;26.42;;;0.70;93.70;;;;;;5002992;28;20764;-88
2022/12/12 03:37:05;;;;;;;40.00;25.50;;;0.70;93.80;;;;;;5020473;28;20409;-88
2022/12/12 03:39:35;;;;;;;42.53;25.90;;;0.70;93.80;;;;;;5003722;28;20409;-89
2022/12/12 03:42:15;;;;;;;37.33;24.77;;;0.70;93.80;;;;;;5019672;28;20415;-88
2022/12/12 03:45:10;;;;;;;41.47;25.38;;;0.70;93.60;;;;;;5020501;28;20421;-88
2022/12/12 03:47:42;;;;;;;42.65;25.40;;;0.70;93.70;;;;;;5001655;28;20437;-89
2022/12/12 03:50:19;;;;;;;39.63;24.48;;;0.70;93.80;;;;;;5020378;28;20919;-88
2022/12/12 03:52:58;;;;;;;39.92;24.77;;;0.70;93.70;;;;;;5018775;28;20424;-88
2022/12/12 03:55:47;;;;;;;43.50;25.25;;;0.80;93.80;;;;;;5019399;28;20823;-88
2022/12/12 03:58:38;;;;;;;44.97;25.17;;;0.80;93.70;;;;;;5004149;28;20417;-88
2022/12/12 04:01:08;;;;;;;38.53;24.63;;;0.80;93.70;;;;;;5000142;28;20419;-87
2022/12/12 04:03:53;;;;;;;42.10;25.02;;;0.80;93.50;;;;;;5003329;28;20429;-88
2022/12/12 04:06:38;;;;;;;38.13;24.55;;;0.70;93.50;;;;;;5020155;28;20417;-88
2022/12/12 04:15:17;;;;;;;43.45;25.10;;;0.80;93.60;;;;;;5003220;28;20416;-88
2022/12/12 04:18:04;;;;;;;37.60;24.83;;;0.70;93.60;;;;;;5002332;28;20417;-88
2022/12/12 04:23:46;;;;;;;40.53;25.20;;;0.80;93.60;;;;;;5003782;28;20512;-88
2022/12/12 04:26:39;;;;;;;44.90;25.52;;;0.80;93.70;;;;;;5001898;28;20514;-89
2022/12/12 04:29:16;;;;;;;37.78;24.17;;;0.90;93.80;;;;;;5003156;28;20498;-88
2022/12/12 04:31:54;;;;;;;40.53;25.70;;;0.80;93.60;;;;;;5019196;28;20440;-88
2022/12/12 04:34:55;;;;;;;42.30;24.80;;;0.80;93.50;;;;;;5018757;28;20419;-89
2022/12/12 04:37:26;;;;;;;38.53;24.55;;;0.80;93.70;;;;;;5019969;28;20452;-88
2022/12/12 04:39:55;;;;;;;40.03;24.35;;;0.90;93.70;;;;;;5002359;28;20440;-88
2022/12/12 04:42:25;;;;;;;38.83;23.98;;;0.80;93.60;;;;;;5002798;28;20451;-88
2022/12/12 04:44:52;;;;;;;38.15;24.17;;;0.80;93.50;;;;;;5019409;28;20748;-88
2022/12/12 04:47:20;;;;;;;37.93;24.27;;;0.80;93.50;;;;;;5002112;28;20472;-89
2022/12/12 04:49:49;;;;;;;37.08;23.80;;;0.80;93.50;;;;;;5003314;28;20424;-87
2022/12/12 04:52:17;;;;;;;38.72;24.00;;;0.80;93.30;;;;;;5001501;28;20488;-88
2022/12/12 04:54:57;;;;;;;40.00;23.60;;;1.00;93.90;;;;;;5019696;28;20400;-87
2022/12/12 04:57:28;;;;;;;38.03;24.50;;;0.80;93.40;;;;;;5018729;28;20417;-88
2022/12/12 04:59:54;;;;;;;42.20;24.52;;;0.80;93.40;;;;;;5018926;28;20500;-86
2022/12/12 05:02:35;;;;;;;39.00;24.47;;;0.80;93.40;;;;;;5019422;28;20479;-87
2022/12/12 05:05:27;;;;;;;39.25;23.88;;;0.80;93.50;;;;;;5022172;28;20539;-88
2022/12/12 05:08:01;;;;;;;39.40;24.10;;;0.80;93.60;;;;;;5005967;28;20440;-88
2022/12/12 05:10:27;;;;;;;41.92;25.40;;;0.90;93.50;;;;;;5042753;28;20902;-88
2022/12/12 05:12:58;;;;;;;40.53;23.85;;;0.80;93.40;;;;;;5025685;28;20410;-88
2022/12/12 05:15:24;;;;;;;40.53;24.00;;;0.90;93.50;;;;;;5026605;28;20406;-88
2022/12/12 05:18:00;;;;;;;40.05;24.85;;;0.80;93.70;;;;;;5025028;28;20519;-88
2022/12/12 05:20:26;;;;;;;37.53;24.23;;;0.80;93.50;;;;;;5027130;28;20439;-89
2022/12/12 05:22:52;;;;;;;38.45;24.30;;;0.80;93.40;;;;;;5025080;28;20442;-88
2022/12/12 05:25:17;;;;;;;37.92;24.25;;;0.80;93.20;;;;;;5026456;28;20415;-88
2022/12/12 05:27:43;;;;;;;36.10;24.00;;;0.90;93.20;;;;;;5025396;28;20526;-87
2022/12/12 05:30:09;;;;;;;38.50;24.57;;;0.90;93.20;;;;;;5042656;28;20811;-88
2022/12/12 05:32:35;;;;;;;37.97;23.55;;;0.90;93.40;;;;;;5025800;28;20463;-88
2022/12/12 05:35:01;;;;;;;37.43;23.57;;;0.90;93.60;;;;;;5024760;28;20446;-88
2022/12/12 05:37:27;;;;;;;37.58;23.75;;;0.90;93.40;;;;;;5026285;28;20415;-89
2022/12/12 05:39:53;;;;;;;39.78;24.75;;;0.90;93.50;;;;;;5024514;28;20410;-87
2022/12/12 05:42:20;;;;;;;37.47;23.52;;;0.90;93.50;;;;;;5025737;28;20511;-89
2022/12/12 05:44:46;;;;;;;37.97;23.60;;;0.90;93.60;;;;;;5008065;28;20510;-87
2022/12/12 05:47:12;;;;;;;38.13;24.30;;;0.80;93.20;;;;;;5007736;28;20413;-88
2022/12/12 05:49:37;;;;;;;35.55;23.75;;;0.90;93.20;;;;;;5001233;28;20428;-87
2022/12/12 05:52:03;;;;;;;40.55;24.75;;;0.80;93.30;;;;;;5037695;28;20405;-88
2022/12/12 05:54:29;;;;;;;40.25;25.02;;;0.90;93.50;;;;;;5039700;28;20401;-88
2022/12/12 05:56:55;;;;;;;38.25;24.27;;;0.90;93.40;;;;;;5020703;28;20467;-88
2022/12/12 05:59:21;;;;;;;38.45;23.85;;;0.90;93.30;;;;;;5039732;28;20899;-88
2022/12/12 06:01:46;;;;;;;38.33;23.83;;;0.90;93.30;;;;;;5037885;28;20417;-89
2022/12/12 06:04:12;;;;;;;38.40;24.53;;;0.90;93.40;;;;;;5001761;28;20475;-88
2022/12/12 06:06:37;;;;;;;38.22;25.30;;;0.90;93.20;;;;;;4969863;28;20473;-88
2022/12/12 06:09:03;;;;;;;40.43;25.10;;;0.90;93.30;;;;;;4969789;28;20550;-88
2022/12/12 06:11:28;;;;;;;42.33;26.80;;;0.90;93.40;;;;;;5002021;28;20422;-88
2022/12/12 06:13:54;;;;;;;43.75;28.15;;;1.00;93.40;;;;;;5017233;28;20406;-89
2022/12/12 06:16:20;;;;;;;41.15;27.27;;;0.90;93.30;;;;;;5019253;28;20437;-88
2022/12/12 06:18:53;;;;;;;39.47;25.60;;;0.90;93.30;;;;;;4984904;28;20421;-88
2022/12/12 06:21:19;;;;;;;34.13;22.35;;;0.90;93.30;;;;;;5002787;28;20910;-89
2022/12/12 06:23:45;;;;;;;35.00;23.83;;;0.90;93.10;;;;;;5001336;28;20913;-88
2022/12/12 06:26:13;;;;;;;34.08;23.15;;;0.90;93.20;;;;;;4969956;28;20817;-89
2022/12/12 06:28:39;;;;;;;35.03;23.88;;;0.90;93.00;;;;;;5017646;28;20513;-87
2022/12/12 06:31:06;;;;;;;35.60;23.63;;;0.90;92.80;;;;;;4969402;28;20417;-89
2022/12/12 06:33:34;;;;;;;35.58;24.10;;;0.90;93.10;;;;;;4987906;28;20450;-88
2022/12/12 06:36:01;;;;;;;34.95;23.65;;;0.90;92.90;;;;;;5017048;28;20954;-88
2022/12/12 06:38:27;;;;;;;37.40;24.85;;;0.80;92.90;;;;;;4970238;28;20501;-89
2022/12/12 06:40:53;;;;;;;36.20;24.65;;;0.80;92.90;;;;;;5017501;28;20413;-88
2022/12/12 06:43:18;;;;;;;38.60;25.45;;;1.00;92.90;;;;;;5001196;28;20406;-90
2022/12/12 06:45:44;;;;;;;39.60;25.70;;;0.90;92.90;;;;;;4968749;28;20902;-88
2022/12/12 06:48:10;;;;;;;37.07;24.57;;;0.90;93.00;;;;;;4979606;28;20461;-89
2022/12/12 06:50:39;;;;;;;35.15;24.55;;;0.80;93.00;;;;;;5005232;28;20844;-89
2022/12/12 06:53:05;;;;;;;35.90;23.70;;;1.00;92.60;;;;;;5003995;28;20396;-87
2022/12/12 06:55:30;;;;;;;34.00;23.20;;;0.80;92.50;;;;;;5005348;28;20416;-87
2022/12/12 06:57:56;;;;;;;37.77;24.27;;;0.80;92.60;;;;;;5003137;28;20996;-87
2022/12/12 07:00:22;;;;;;;36.33;24.42;;;0.80;92.70;;;;;;5005225;28;20412;-87
2022/12/12 07:02:47;;;;;;;40.00;25.63;;;0.80;92.90;;;;;;5002122;28;20429;-88
2022/12/12 07:05:13;;;;;;;41.27;26.50;;;0.80;93.00;;;;;;4988103;28;20413;-88
2022/12/12 07:07:38;;;;;;;34.20;23.73;;;0.90;93.00;;;;;;4987501;28;20498;-86
2022/12/12 07:10:04;;;;;;;37.80;24.20;;;0.80;92.70;;;;;;4983335;28;20440;-88
2022/12/12 07:12:30;;;;;;;39.75;25.02;;;0.80;92.60;;;;;;5001834;28;20410;-88
2022/12/12 07:14:55;;;;;;;39.70;24.67;;;0.80;92.90;;;;;;4983524;28;20407;-88
2022/12/12 07:17:21;;;;;;;35.40;23.47;;;0.80;92.90;;;;;;4969335;28;20422;-88
2022/12/12 07:19:47;;;;;;;38.72;24.85;;;1.00;92.90;;;;;;4999932;28;20426;-88
2022/12/12 07:22:12;;;;;;;37.47;24.00;;;0.80;92.80;;;;;;4984724;28;20407;-88
2022/12/12 07:24:38;;;;;;;33.37;23.63;;;0.80;93.00;;;;;;4983965;28;20916;-88
2022/12/12 07:27:04;;;;;;;31.65;22.95;;;1.10;92.60;;;;;;4999493;28;20423;-87
2022/12/12 07:29:30;;;;;;;36.95;24.63;;;0.90;92.60;;;;;;4984343;28;20431;-88
2022/12/12 07:31:55;;;;;;;36.67;23.60;;;0.80;92.60;;;;;;4967352;28;20419;-88
2022/12/12 07:34:21;;;;;;;34.22;24.10;;;0.80;92.60;;;;;;4985108;28;20414;-86
2022/12/12 07:36:47;;;;;;;36.07;23.03;;;0.80;92.50;;;;;;4982826;28;20410;-88
2022/12/12 07:39:12;;;;;;;37.57;25.17;;;0.80;92.20;;;;;;4984380;28;20415;-88
2022/12/12 07:41:38;;;;;;;36.60;24.15;;;0.80;92.60;;;;;;4967434;28;20429;-88
2022/12/12 07:44:04;;;;;;;30.25;22.52;;;0.80;92.80;;;;;;4983793;28;20442;-88
2022/12/12 07:46:29;;;;;;;33.40;23.88;;;0.80;92.10;;;;;;4983848;28;20410;-89
2022/12/12 07:48:56;;;;;;;31.00;23.13;;;0.80;92.40;;;;;;4967400;28;20476;-88
2022/12/12 07:51:23;;;;;;;34.55;24.70;;;0.80;92.20;;;;;;4984661;28;20407;-87
2022/12/12 07:53:48;;;;;;;45.28;33.72;;;0.80;91.80;;;;;;4982480;28;20415;-88
2022/12/12 07:56:15;;;;;;;28.33;23.02;;;0.80;92.20;;;;;;4968440;28;20477;-87
2022/12/12 07:58:41;;;;;;;33.38;25.90;;;0.80;91.30;;;;;;4966428;28;20834;-88
2022/12/12 08:01:09;;;;;;;33.25;24.00;;;0.80;91.70;;;;;;4967909;28;20415;-88
2022/12/12 08:03:35;;;;;;;32.67;24.00;;;0.80;91.30;;;;;;4983603;28;20473;-87
2022/12/12 08:06:04;;;;;;;31.52;23.10;;;0.80;91.20;;;;;;4967252;28;20422;-88
2022/12/12 08:08:30;;;;;;;31.08;23.33;;;0.80;91.40;;;;;;4967556;28;20430;-88
2022/12/12 08:10:55;;;;;;;35.57;25.20;;;0.80;91.10;;;;;;4982802;28;20418;-87
2022/12/12 08:13:21;;;;;;;28.83;22.15;;;0.80;91.20;;;;;;4984442;28;20414;-87
2022/12/12 08:15:46;;;;;;;28.03;20.27;;;0.80;90.70;;;;;;4966444;28;20419;-88
2022/12/12 08:18:12;;;;;;;31.77;23.17;;;0.80;90.80;;;;;;4984348;28;20411;-88
2022/12/12 08:20:39;;;;;;;28.02;21.80;;;0.80;90.60;;;;;;4966546;28;20976;-88
2022/12/12 08:23:05;;;;;;;30.63;22.45;;;0.80;90.70;;;;;;4983652;28;20501;-88
2022/12/12 08:25:32;;;;;;;28.27;21.63;;;0.90;91.20;;;;;;4967077;28;20581;-87
2022/12/12 08:27:58;;;;;;;31.70;22.95;;;0.90;90.90;;;;;;4966856;28;20805;-89
2022/12/12 08:30:23;;;;;;;29.77;22.17;;;0.90;91.20;;;;;;4984108;28;20410;-87
2022/12/12 08:32:49;;;;;;;30.67;22.55;;;0.90;91.50;;;;;;4965986;28;20413;-86
2022/12/12 08:35:14;;;;;;;28.93;21.47;;;0.90;91.40;;;;;;4968162;28;21165;-87
2022/12/12 08:37:40;;;;;;;30.87;23.13;;;1.00;91.40;;;;;;4982110;28;20422;-86
2022/12/12 08:40:06;;;;;;;31.02;22.92;;;1.00;91.50;;;;;;4983571;28;20425;-88
2022/12/12 08:42:32;;;;;;;32.30;23.58;;;1.00;91.60;;;;;;4966381;28;20414;-87
2022/12/12 08:44:58;;;;;;;32.22;23.75;;;1.00;91.80;;;;;;4966757;28;20422;-88
2022/12/12 08:47:23;;;;;;;32.03;22.63;;;1.00;92.60;;;;;;4983690;28;20506;-87
2022/12/12 08:49:49;;;;;;;35.15;24.02;;;1.00;92.50;;;;;;4982093;28;20402;-87
2022/12/12 08:52:14;;;;;;;28.97;21.77;;;1.10;92.00;;;;;;4968101;28;20409;-88
2022/12/12 08:54:40;;;;;;;26.73;20.43;;;1.00;90.80;;;;;;4965842;28;20933;-89
2022/12/12 08:57:06;;;;;;;25.85;20.58;;;1.30;90.30;;;;;;4967433;28;20411;-88
2022/12/12 08:59:32;;;;;;;26.77;20.92;;;1.00;90.30;;;;;;4982430;28;20414;-88
2022/12/12 09:01:57;;;;;;;26.42;20.92;;;0.90;90.50;;;;;;4983078;28;20426;-89
2022/12/12 09:04:23;;;;;;;28.50;21.77;;;1.10;90.30;;;;;;4982793;28;20406;-89
2022/12/12 09:06:49;;;;;;;30.20;22.33;;;1.20;91.10;;;;;;4982695;28;20417;-88
2022/12/12 09:09:14;;;;;;;28.67;21.98;;;1.00;91.30;;;;;;4983210;28;20438;-88
2022/12/12 09:11:40;;;;;;;26.65;20.63;;;1.00;91.10;;;;;;4982358;28;20902;-88
2022/12/12 09:14:05;;;;;;;27.97;21.47;;;1.00;90.50;;;;;;4983742;28;20425;-88
2022/12/12 09:16:32;;;;;;;23.80;19.33;;;1.00;90.90;;;;;;4981749;28;20460;-88
2022/12/12 09:18:57;;;;;;;23.27;19.40;;;1.00;90.10;;;;;;4983557;28;20763;-88
2022/12/12 09:21:23;;;;;;;28.10;21.40;;;1.00;88.30;;;;;;4966048;28;20469;-87
2022/12/12 09:23:49;;;;;;;27.53;20.43;;;1.10;90.60;;;;;;4966317;28;20461;-88
2022/12/12 09:26:16;;;;;;;25.40;19.95;;;1.10;90.90;;;;;;4983370;28;20468;-87
2022/12/12 09:28:42;;;;;;;22.73;18.58;;;1.10;90.30;;;;;;4982084;28;20465;-88
2022/12/12 09:31:10;;;;;;;27.58;21.05;;;1.10;89.70;;;;;;4983831;28;20810;-87
2022/12/12 09:33:36;;;;;;;27.30;20.70;;;1.20;90.10;;;;;;4965691;28;20468;-87
2022/12/12 09:36:05;;;;;;;25.83;19.80;;;1.30;90.50;;;;;;4966926;28;20418;-88
2022/12/12 09:38:31;;;;;;;28.92;21.27;;;1.30;89.80;;;;;;4981733;28;20402;-88
2022/12/12 09:41:03;;;;;;;30.25;22.10;;;1.30;88.30;;;;;;4982655;28;20476;-88
2022/12/12 09:43:33;;;;;;;31.15;23.60;;;1.30;89.00;;;;;;4982792;28;20422;-87
2022/12/12 09:46:00;;;;;;;27.55;21.05;;;1.20;90.10;;;;;;4982258;28;20490;-88
2022/12/12 09:48:45;;;;;;;30.33;21.92;;;1.20;90.00;;;;;;4967426;28;20597;-88
2022/12/12 09:51:11;;;;;;;29.05;22.02;;;1.30;90.90;;;;;;4968360;28;20419;-88
2022/12/12 09:53:39;;;;;;;24.25;19.05;;;1.40;90.50;;;;;;4970043;28;20465;-88
2022/12/12 09:56:30;;;;;;;24.90;19.23;;;1.40;89.80;;;;;;4969102;28;20481;-88
2022/12/12 09:59:39;;;;;;;26.20;20.08;;;1.50;87.60;;;;;;4968885;28;20498;-89
2022/12/12 10:02:08;;;;;;;27.60;20.33;;;1.50;88.60;;;;;;4967637;28;20422;-88
2022/12/12 10:04:58;;;;;;;27.10;20.13;;;1.50;88.80;;;;;;4985140;28;20426;-86
2022/12/12 10:07:54;;;;;;;28.85;21.02;;;1.50;88.50;;;;;;4985498;28;20548;-88
2022/12/12 10:10:37;;;;;;;25.40;19.65;;;1.50;89.30;;;;;;4986657;28;20458;-89
2022/12/12 10:13:10;;;;;;;26.40;19.75;;;1.50;87.50;;;;;;4968986;28;20514;-88
2022/12/12 10:15:44;;;;;;;25.37;19.07;;;1.50;88.20;;;;;;4985598;28;20411;-87
2022/12/12 10:18:17;;;;;;;25.52;19.70;;;1.60;88.90;;;;;;4985497;28;20407;-88
2022/12/12 10:20:55;;;;;;;25.65;19.45;;;1.60;88.50;;;;;;4988391;28;20431;-88
2022/12/12 10:23:42;;;;;;;24.75;19.02;;;1.60;88.80;;;;;;4997398;28;20515;-88
2022/12/12 10:26:19;;;;;;;22.77;17.85;;;1.60;88.60;;;;;;4999255;28;20412;-86
2022/12/12 10:28:49;;;;;;;24.70;19.20;;;1.70;87.70;;;;;;4979488;28;20439;-88
2022/12/12 10:31:35;;;;;;;25.88;19.52;;;1.70;88.00;;;;;;4977117;28;20498;-88
2022/12/12 10:34:19;;;;;;;25.38;19.48;;;1.70;88.60;;;;;;5030860;28;20782;-89
2022/12/12 10:37:09;;;;;;;24.40;18.95;;;1.80;88.40;;;;;;5038350;28;20413;-89
2022/12/12 10:39:59;;;;;;;24.63;19.10;;;1.80;88.90;;;;;;5004666;28;20417;-89
2022/12/12 10:42:41;;;;;;;22.88;18.55;;;1.80;88.10;;;;;;5037419;28;20512;-89
2022/12/12 10:45:36;;;;;;;24.50;19.25;;;1.80;88.60;;;;;;5038760;28;20420;-89
2022/12/12 10:48:02;;;;;;;26.08;19.70;;;1.80;88.30;;;;;;5037754;28;20425;-88
2022/12/12 10:50:33;;;;;;;25.73;19.60;;;1.80;89.00;;;;;;5037757;28;20780;-88
2022/12/12 10:53:01;;;;;;;28.58;21.17;;;1.80;89.80;;;;;;5037798;28;20413;-88
2022/12/12 10:56:02;;;;;;;25.05;19.30;;;1.80;90.00;;;;;;5020868;28;20494;-87
2022/12/12 10:58:37;;;;;;;26.33;20.55;;;1.90;88.80;;;;;;4980229;28;20493;-89
2022/12/12 11:01:10;;;;;;;26.83;21.10;;;2.00;89.20;;;;;;5036811;28;20496;-87
2022/12/12 11:03:40;;;;;;;26.90;20.38;;;2.00;89.40;;;;;;5037024;28;20503;-88
2022/12/12 11:06:14;;;;;;;28.00;20.52;;;2.10;89.40;;;;;;5037727;28;20539;-88
2022/12/12 11:08:53;;;;;;;27.67;20.90;;;2.20;87.70;;;;;;5036228;28;20784;-88
2022/12/12 11:11:21;;;;;;;27.33;21.10;;;2.20;88.50;;;;;;5037716;28;20409;-88
2022/12/12 11:13:54;;;;;;;26.52;20.63;;;2.10;88.10;;;;;;5019668;28;20935;-88
2022/12/12 11:16:24;;;;;;;28.17;21.33;;;2.10;88.40;;;;;;5037500;28;20424;-88
2022/12/12 11:19:14;;;;;;;28.35;21.27;;;2.10;88.20;;;;;;5037441;28;20822;-87
2022/12/12 11:21:40;;;;;;;27.80;21.15;;;2.10;88.20;;;;;;5019558;28;20416;-88
2022/12/12 11:24:11;;;;;;;27.50;20.92;;;2.00;88.70;;;;;;5026053;28;20813;-88
2022/12/12 11:26:44;;;;;;;31.50;23.05;;;2.00;88.10;;;;;;5023042;28;20762;-88
2022/12/12 11:29:40;;;;;;;26.93;21.37;;;2.00;88.80;;;;;;5023529;28;20431;-88
2022/12/12 11:32:23;;;;;;;27.45;21.48;;;2.00;89.30;;;;;;5020243;28;20484;-88
2022/12/12 11:34:53;;;;;;;29.13;22.33;;;2.00;88.90;;;;;;5022911;28;20420;-88
2022/12/12 11:37:21;;;;;;;28.92;22.23;;;2.00;89.90;;;;;;5023947;28;20422;-89
2022/12/12 11:39:51;;;;;;;29.75;22.30;;;2.00;89.80;;;;;;5022836;28;20411;-89
2022/12/12 11:42:27;;;;;;;27.15;20.98;;;2.00;89.30;;;;;;5023566;28;20411;-89
2022/12/12 11:45:03;;;;;;;27.88;20.83;;;2.00;88.10;;;;;;5023577;28;20411;-88
2022/12/12 11:47:42;;;;;;;28.10;21.50;;;2.00;88.80;;;;;;5021867;28;20411;-87
2022/12/12 11:50:24;;;;;;;26.90;20.55;;;2.10;90.00;;;;;;5023904;28;20914;-89
2022/12/12 11:52:55;;;;;;;27.52;21.50;;;2.20;89.10;;;;;;5022661;28;20497;-88
2022/12/12 11:56:02;;;;;;;32.22;23.80;;;2.30;88.70;;;;;;5022644;28;20419;-87
2022/12/12 11:58:37;;;;;;;29.58;22.85;;;2.60;87.90;;;;;;5015308;28;20490;-89
2022/12/12 12:01:22;;;;;;;26.90;21.17;;;2.70;86.60;;;;;;5022224;28;20459;-89
2022/12/12 12:04:14;;;;;;;27.55;21.13;;;2.60;86.50;;;;;;5023319;28;21045;-88
2022/12/12 12:06:49;;;;;;;26.10;21.10;;;2.60;86.40;;;;;;5001847;28;20478;-87
2022/12/12 12:09:36;;;;;;;26.70;20.35;;;2.80;87.00;;;;;;5001521;28;20966;-88
2022/12/12 12:12:11;;;;;;;24.40;19.47;;;3.20;84.80;;;;;;5002831;28;20459;-88
2022/12/12 12:14:52;;;;;;;25.37;19.73;;;3.50;84.20;;;;;;5019183;28;20416;-88
2022/12/12 12:17:39;;;;;;;23.88;19.45;;;3.40;82.80;;;;;;5002483;28;20417;-88
2022/12/12 12:20:41;;;;;;;24.50;19.63;;;3.20;82.40;;;;;;5003580;28;20452;-89
2022/12/12 12:23:35;;;;;;;27.55;21.27;;;3.00;83.40;;;;;;5001641;28;20413;-88
2022/12/12 12:26:46;;;;;;;23.93;19.57;;;2.80;85.70;;;;;;5002596;28;20902;-88
2022/12/12 12:29:37;;;;;;;24.45;19.98;;;2.70;84.50;;;;;;4981857;28;20475;-89
2022/12/12 12:32:41;;;;;;;25.55;19.70;;;2.60;85.00;;;;;;5002860;28;20494;-89
2022/12/12 12:35:18;;;;;;;23.87;20.17;;;2.50;86.60;;;;;;5001928;28;20424;-88
2022/12/12 12:37:47;;;;;;;26.10;20.35;;;2.40;87.20;;;;;;5013097;28;20409;-89
2022/12/12 12:40:24;;;;;;;26.77;20.60;;;2.40;85.70;;;;;;5005764;28;20414;-89
2022/12/12 12:43:28;;;;;;;26.37;20.43;;;2.30;85.80;;;;;;4982991;28;20477;-88
2022/12/12 12:46:13;;;;;;;25.30;20.52;;;2.20;86.10;;;;;;4956383;28;20414;-89
2022/12/12 12:48:57;;;;;;;26.15;20.20;;;2.20;87.00;;;;;;4966040;28;20485;-88
2022/12/12 12:51:33;;;;;;;25.90;21.15;;;2.10;86.30;;;;;;4974346;28;20534;-89
2022/12/12 12:54:27;;;;;;;24.47;19.30;;;2.10;87.10;;;;;;4976806;28;20449;-88
2022/12/12 12:57:08;;;;;;;25.03;19.77;;;2.00;85.50;;;;;;5001615;28;20423;-88
2022/12/12 12:59:39;;;;;;;23.80;18.55;;;2.00;86.20;;;;;;5003615;28;20420;-88
2022/12/12 13:02:44;;;;;;;25.67;19.90;;;1.90;86.10;;;;;;5002393;28;20432;-88
2022/12/12 13:05:31;;;;;;;24.83;19.53;;;1.90;86.90;;;;;;5002242;28;20425;-88
2022/12/12 13:08:13;;;;;;;27.10;20.83;;;2.00;88.00;;;;;;5004069;28;20428;-87
2022/12/12 13:10:46;;;;;;;26.13;20.25;;;1.90;87.70;;;;;;5002104;28;20409;-88
2022/12/12 13:13:23;;;;;;;25.05;19.67;;;2.00;87.50;;;;;;5002986;28;20408;-89
2022/12/12 13:15:55;;;;;;;26.02;19.92;;;2.00;88.20;;;;;;5003556;28;20784;-89